Terminal Aerodrome Forecast
Issued by NWS Albany, NY

Home | Current Version | Previous Version | Text Only | Print | Product List | Glossary On
Versions: 1 2 3 4 5 6 7 8 9 10 11 12 13 14 15 16 17 18 19 20 21 22 23 24
000
FTUS41 KALY 272000 AAB
TAFGFL
TAF AMD
KGFL 272055Z 2721/2818 04008G14KT P6SM VCSH OVC040
      TEMPO 2721/2723 5SM -SN OVC030
     FM280100 36012G18KT P6SM OVC040
     FM281500 34010KT P6SM SCT050=

USA.gov is the U.S. government's official web portal to all federal, state and local government web resources and services.